Time;durP1;ratioP1;P1;durP2;ratioP2;P2;SDS_P1;SDS_P2;PMS_P1;PMS_P2;Temp;Humidity;BMP_temperature;BMP_pressure;BME280_temperature;BME280_humidity;BME280_pressure;Samples;Min_cycle;Max_cycle;Signal;HPM_P1;HPM_P2
2021/05/07 00:00:33;;;;;;;2.10;1.10;;;7.80;99.90;;;;;;5014299;28;20212;-89
2021/05/07 00:02:58;;;;;;;0.80;0.80;;;7.80;99.90;;;;;;5015555;28;20177;-89
2021/05/07 00:05:24;;;;;;;0.80;0.80;;;7.80;99.90;;;;;;5014124;28;20177;-88
2021/05/07 00:07:50;;;;;;;1.00;1.00;;;7.80;99.90;;;;;;5013946;28;20607;-88
2021/05/07 00:10:15;;;;;;;1.10;1.00;;;7.80;99.90;;;;;;5013821;28;20182;-88
2021/05/07 00:12:41;;;;;;;1.10;1.00;;;7.80;99.90;;;;;;5014096;28;20224;-88
2021/05/07 00:15:08;;;;;;;1.80;1.07;;;7.90;99.90;;;;;;5013817;28;20177;-89
2021/05/07 00:17:33;;;;;;;0.80;0.80;;;7.80;99.90;;;;;;5014705;28;20423;-88
2021/05/07 00:19:59;;;;;;;0.97;0.77;;;7.80;99.90;;;;;;5013728;28;20424;-88
2021/05/07 00:22:25;;;;;;;0.80;0.80;;;7.80;99.90;;;;;;5014625;28;20182;-88
2021/05/07 00:24:50;;;;;;;0.77;0.77;;;7.80;99.90;;;;;;5013508;28;20416;-88
2021/05/07 00:27:17;;;;;;;0.77;0.77;;;7.80;99.90;;;;;;5013784;28;20227;-88
2021/05/07 00:29:44;;;;;;;0.77;0.67;;;7.80;99.90;;;;;;5013851;28;20652;-88
2021/05/07 00:32:09;;;;;;;1.47;1.40;;;7.80;99.90;;;;;;5014798;28;20527;-88
2021/05/07 00:34:35;;;;;;;1.40;1.30;;;7.70;99.90;;;;;;5014800;28;20447;-88
2021/05/07 00:37:00;;;;;;;1.33;0.83;;;7.70;99.90;;;;;;5013719;28;20180;-88
2021/05/07 00:39:26;;;;;;;0.70;0.70;;;7.70;99.90;;;;;;5014021;28;20177;-88
2021/05/07 00:41:52;;;;;;;0.70;0.70;;;7.70;99.90;;;;;;5014341;28;20299;-89
2021/05/07 00:44:17;;;;;;;0.50;0.40;;;7.60;99.90;;;;;;5015529;28;20185;-88
2021/05/07 00:46:44;;;;;;;0.83;0.77;;;7.60;99.90;;;;;;5017302;28;20187;-88
2021/05/07 00:49:11;;;;;;;1.23;1.13;;;7.70;99.90;;;;;;5027852;28;20177;-88
2021/05/07 00:51:37;;;;;;;0.70;0.70;;;7.60;99.90;;;;;;5024546;28;20423;-88
2021/05/07 00:54:03;;;;;;;1.03;0.70;;;7.70;99.90;;;;;;5017608;28;20523;-88
2021/05/07 00:56:29;;;;;;;0.80;0.80;;;7.70;99.90;;;;;;5016228;28;20691;-88
2021/05/07 00:58:54;;;;;;;0.50;0.50;;;7.70;99.90;;;;;;5014466;28;20417;-88
2021/05/07 01:01:20;;;;;;;0.80;0.80;;;7.60;99.90;;;;;;5019076;28;20240;-88
2021/05/07 01:03:46;;;;;;;1.27;1.17;;;7.50;99.90;;;;;;5019034;28;20248;-89
2021/05/07 01:06:11;;;;;;;3.00;1.20;;;7.40;99.90;;;;;;5017660;28;20572;-88
2021/05/07 01:08:37;;;;;;;0.97;0.90;;;7.40;99.90;;;;;;5017758;28;20178;-89
2021/05/07 01:11:03;;;;;;;2.10;1.10;;;7.30;99.90;;;;;;5017904;28;20189;-88
2021/05/07 01:13:29;;;;;;;2.07;0.87;;;7.30;99.90;;;;;;5018322;28;20292;-88
2021/05/07 01:15:54;;;;;;;1.33;1.23;;;7.30;99.90;;;;;;5017513;28;20208;-88
2021/05/07 01:18:20;;;;;;;1.43;0.97;;;7.30;99.90;;;;;;5017636;28;20181;-89
2021/05/07 01:20:45;;;;;;;1.73;0.90;;;7.20;99.90;;;;;;5018070;28;20205;-89
2021/05/07 01:23:11;;;;;;;1.00;0.90;;;7.20;99.90;;;;;;5017407;28;20205;-89
2021/05/07 01:25:39;;;;;;;1.07;0.97;;;7.10;99.90;;;;;;5017115;28;20177;-90
2021/05/07 01:28:08;;;;;;;1.23;0.97;;;7.00;99.90;;;;;;5018582;28;20224;-90
2021/05/07 01:30:37;;;;;;;1.00;1.00;;;7.00;99.90;;;;;;5018079;28;20430;-91
2021/05/07 01:33:03;;;;;;;1.40;1.30;;;7.00;99.90;;;;;;5018496;28;20540;-89
2021/05/07 01:35:34;;;;;;;0.97;0.97;;;7.00;99.90;;;;;;5017016;28;20968;-90
2021/05/07 01:38:03;;;;;;;0.80;0.73;;;6.90;99.90;;;;;;5016983;28;20416;-90
2021/05/07 01:40:31;;;;;;;1.10;1.00;;;6.90;99.90;;;;;;5016770;28;20518;-89
2021/05/07 01:42:58;;;;;;;1.97;1.30;;;6.90;99.90;;;;;;5017071;28;20463;-90
2021/05/07 01:45:26;;;;;;;0.43;0.43;;;6.90;99.90;;;;;;5017447;28;20416;-89
2021/05/07 01:47:53;;;;;;;1.20;1.10;;;6.90;99.90;;;;;;5016922;28;20424;-90
2021/05/07 01:50:22;;;;;;;1.13;0.97;;;6.90;99.90;;;;;;5016831;28;20412;-89
2021/05/07 01:52:49;;;;;;;2.00;1.50;;;6.90;99.90;;;;;;5017934;28;20951;-89
2021/05/07 01:55:18;;;;;;;1.60;1.50;;;6.90;99.90;;;;;;5016352;28;20439;-89
2021/05/07 01:57:44;;;;;;;2.17;1.97;;;6.90;99.90;;;;;;5017364;28;20419;-90
2021/05/07 02:00:18;;;;;;;1.63;1.53;;;6.90;99.90;;;;;;5016463;28;20420;-89
2021/05/07 02:02:44;;;;;;;1.50;1.40;;;6.90;99.90;;;;;;5017697;28;20419;-89
2021/05/07 02:05:12;;;;;;;2.47;1.90;;;6.90;99.90;;;;;;5016456;28;20471;-89
2021/05/07 02:07:38;;;;;;;1.60;1.50;;;6.80;99.90;;;;;;5016308;28;20426;-89
2021/05/07 02:10:08;;;;;;;2.10;2.00;;;6.80;99.90;;;;;;5016889;28;20424;-90
2021/05/07 02:12:33;;;;;;;1.73;1.63;;;6.90;99.90;;;;;;5015643;28;20424;-89
2021/05/07 02:14:59;;;;;;;1.60;1.43;;;6.80;99.90;;;;;;5017015;28;20490;-89
2021/05/07 02:17:24;;;;;;;2.87;2.67;;;6.80;99.90;;;;;;5017193;28;20227;-90
2021/05/07 02:19:50;;;;;;;3.33;2.10;;;6.80;99.90;;;;;;5017036;28;20227;-89
2021/05/07 02:22:16;;;;;;;1.70;1.60;;;6.80;99.90;;;;;;5015650;28;20233;-88
2021/05/07 02:24:41;;;;;;;2.10;1.90;;;6.80;99.90;;;;;;5017120;28;20306;-88
2021/05/07 02:27:07;;;;;;;1.30;1.20;;;6.80;99.90;;;;;;5015292;28;20641;-88
2021/05/07 02:29:32;;;;;;;1.43;1.30;;;6.70;99.90;;;;;;5016873;28;20181;-88
2021/05/07 02:31:58;;;;;;;1.77;1.67;;;6.70;99.90;;;;;;5016261;28;20177;-88
2021/05/07 02:34:24;;;;;;;2.10;1.90;;;6.80;99.90;;;;;;5016556;28;20541;-88
2021/05/07 02:36:49;;;;;;;0.73;0.73;;;6.80;99.90;;;;;;5016749;28;20432;-88
2021/05/07 02:39:16;;;;;;;1.90;1.80;;;6.90;99.90;;;;;;5015841;28;20204;-89
2021/05/07 02:41:43;;;;;;;2.77;1.90;;;6.80;99.90;;;;;;5015765;28;20300;-88
2021/05/07 02:44:10;;;;;;;2.60;2.40;;;6.90;99.90;;;;;;5016162;28;20455;-88
2021/05/07 02:46:36;;;;;;;2.60;2.40;;;6.80;99.90;;;;;;5016213;28;20935;-88
2021/05/07 02:49:04;;;;;;;2.37;2.20;;;6.80;99.90;;;;;;5015699;28;20920;-88
2021/05/07 02:51:31;;;;;;;2.10;1.93;;;6.80;99.90;;;;;;5015678;28;20458;-89
2021/05/07 02:53:57;;;;;;;2.33;2.23;;;6.80;99.90;;;;;;5016193;28;20464;-88
2021/05/07 02:56:23;;;;;;;2.70;2.50;;;6.80;99.90;;;;;;5017647;28;20433;-89
2021/05/07 02:58:48;;;;;;;3.00;2.80;;;6.70;99.90;;;;;;5016514;28;20409;-89
2021/05/07 03:01:14;;;;;;;2.53;2.33;;;6.70;99.90;;;;;;5016435;28;20209;-90
2021/05/07 03:03:40;;;;;;;3.80;2.87;;;6.80;99.90;;;;;;5016954;28;20525;-89
2021/05/07 03:06:05;;;;;;;2.63;2.43;;;6.80;99.90;;;;;;5015622;28;20188;-89
2021/05/07 03:08:31;;;;;;;3.47;3.17;;;6.70;99.90;;;;;;5015572;28;20173;-89
2021/05/07 03:10:57;;;;;;;3.83;3.43;;;6.60;99.90;;;;;;5015334;28;20644;-89
2021/05/07 03:13:22;;;;;;;1.77;1.67;;;6.70;99.90;;;;;;5022335;28;20187;-89
2021/05/07 03:15:48;;;;;;;2.70;2.50;;;6.70;99.90;;;;;;5028101;28;20177;-87
2021/05/07 03:18:23;;;;;;;3.00;2.80;;;6.60;99.90;;;;;;5026980;28;20192;-89
2021/05/07 03:20:52;;;;;;;3.20;3.00;;;6.60;99.90;;;;;;5022883;28;20222;-88
2021/05/07 03:23:18;;;;;;;2.80;2.50;;;6.70;99.90;;;;;;5018844;28;20423;-88
2021/05/07 03:25:45;;;;;;;4.10;3.80;;;6.60;99.90;;;;;;5017896;28;20511;-90
2021/05/07 03:28:11;;;;;;;2.80;2.50;;;6.70;99.90;;;;;;5022565;28;20420;-90
2021/05/07 03:30:36;;;;;;;3.50;3.20;;;6.60;99.90;;;;;;5020528;28;20431;-87
2021/05/07 03:33:04;;;;;;;4.07;3.60;;;6.60;99.90;;;;;;5022283;28;20541;-89
2021/05/07 03:35:31;;;;;;;3.60;3.30;;;6.60;99.90;;;;;;5022781;28;20538;-90
2021/05/07 03:37:57;;;;;;;4.10;3.70;;;6.60;99.90;;;;;;5023514;28;20421;-88
2021/05/07 03:40:22;;;;;;;5.93;5.43;;;6.60;99.90;;;;;;5023701;28;20467;-89
2021/05/07 03:42:48;;;;;;;4.73;3.80;;;6.60;99.90;;;;;;5033723;28;20189;-88
2021/05/07 03:45:14;;;;;;;4.60;3.90;;;6.60;99.90;;;;;;5025719;28;20173;-90
2021/05/07 03:47:41;;;;;;;4.33;3.93;;;6.60;99.90;;;;;;5020375;28;20177;-89
2021/05/07 03:50:08;;;;;;;4.80;3.97;;;6.60;99.90;;;;;;5017018;28;20488;-89
2021/05/07 03:52:33;;;;;;;3.53;3.23;;;6.60;99.90;;;;;;5016446;28;20476;-89
2021/05/07 03:54:59;;;;;;;5.40;5.00;;;6.60;99.90;;;;;;5017891;28;20427;-85
2021/05/07 03:57:25;;;;;;;4.37;3.97;;;6.60;99.90;;;;;;5016080;28;20256;-76
2021/05/07 03:59:54;;;;;;;4.17;3.77;;;6.70;99.90;;;;;;5014773;28;20224;-90
2021/05/07 04:02:20;;;;;;;4.37;4.03;;;6.70;99.90;;;;;;5014874;28;20490;-90
2021/05/07 04:04:46;;;;;;;3.60;3.30;;;6.50;99.90;;;;;;5016010;28;20417;-90
2021/05/07 04:07:14;;;;;;;7.10;4.23;;;6.60;99.90;;;;;;5014626;28;20528;-77
2021/05/07 04:09:48;;;;;;;6.43;5.63;;;6.60;99.90;;;;;;5015501;28;20412;-90
2021/05/07 04:12:20;;;;;;;4.33;3.90;;;6.80;99.90;;;;;;5020421;28;20451;-89
2021/05/07 04:14:45;;;;;;;4.60;4.20;;;6.80;99.90;;;;;;5016054;28;20416;-86
2021/05/07 04:17:11;;;;;;;4.77;4.37;;;6.80;99.90;;;;;;5015773;28;20754;-90
2021/05/07 04:19:37;;;;;;;3.20;2.90;;;6.70;99.90;;;;;;5014626;28;20700;-89
2021/05/07 04:22:02;;;;;;;2.80;2.60;;;6.70;99.90;;;;;;5015395;28;20209;-90
2021/05/07 04:24:28;;;;;;;2.90;2.70;;;6.60;99.90;;;;;;5019012;28;20176;-89
2021/05/07 04:26:54;;;;;;;2.70;1.97;;;6.60;99.90;;;;;;5017612;28;20513;-91
2021/05/07 04:29:25;;;;;;;2.60;2.40;;;6.50;99.90;;;;;;5015842;28;20180;-87
2021/05/07 04:31:51;;;;;;;2.93;2.70;;;6.50;99.90;;;;;;5017443;28;20185;-90
2021/05/07 04:34:16;;;;;;;4.70;4.30;;;6.40;99.90;;;;;;5016353;28;20424;-89
2021/05/07 04:36:42;;;;;;;4.07;3.77;;;6.40;99.90;;;;;;5013658;28;20191;-90
2021/05/07 04:39:08;;;;;;;3.60;3.40;;;6.50;99.90;;;;;;5015864;28;20182;-91
2021/05/07 04:41:35;;;;;;;3.70;3.40;;;6.50;99.90;;;;;;5015598;28;20212;-89
2021/05/07 04:44:01;;;;;;;8.07;7.47;;;6.60;99.90;;;;;;5014983;28;20928;-90
2021/05/07 04:46:27;;;;;;;3.93;2.90;;;6.80;99.90;;;;;;5014324;28;20435;-87
2021/05/07 04:48:53;;;;;;;2.77;2.57;;;6.60;99.90;;;;;;5019215;28;20428;-91
2021/05/07 04:51:18;;;;;;;6.70;6.10;;;6.60;99.90;;;;;;5015887;28;20439;-87
2021/05/07 04:53:44;;;;;;;4.00;3.17;;;6.60;99.90;;;;;;5014731;28;20221;-83
2021/05/07 04:56:10;;;;;;;4.20;3.57;;;6.70;99.90;;;;;;5014110;28;20443;-90
2021/05/07 04:58:35;;;;;;;3.77;3.47;;;6.70;99.90;;;;;;5013965;28;20181;-85
2021/05/07 05:01:02;;;;;;;5.53;5.03;;;6.50;99.90;;;;;;5016365;28;20209;-87
2021/05/07 05:03:28;;;;;;;4.40;4.00;;;6.40;99.90;;;;;;5014575;28;20227;-90
2021/05/07 05:05:53;;;;;;;4.87;4.40;;;6.40;99.90;;;;;;5015191;28;20420;-90
2021/05/07 05:08:23;;;;;;;7.23;4.80;;;6.40;99.90;;;;;;5018624;28;20181;-81
2021/05/07 05:10:52;;;;;;;7.30;6.60;;;6.30;99.90;;;;;;5014732;28;20192;-86
2021/05/07 05:13:18;;;;;;;4.93;4.50;;;6.40;99.90;;;;;;5018724;28;20421;-89
2021/05/07 05:15:43;;;;;;;5.50;4.93;;;6.30;99.90;;;;;;5014571;28;20470;-91
2021/05/07 05:18:09;;;;;;;5.63;5.13;;;6.30;99.90;;;;;;5018009;28;20205;-88
2021/05/07 05:23:57;;;;;;;8.37;5.60;;;6.50;99.90;;;;;;5014645;28;20216;-86
2021/05/07 05:26:23;;;;;;;10.77;6.20;;;6.50;99.90;;;;;;5014430;28;20431;-87
2021/05/07 05:28:48;;;;;;;2.93;2.50;;;6.50;99.90;;;;;;5014083;28;20200;-89
2021/05/07 05:31:15;;;;;;;5.93;5.33;;;6.60;99.90;;;;;;5013587;28;20427;-86
2021/05/07 05:33:40;;;;;;;5.47;4.97;;;6.60;99.90;;;;;;5016259;28;20181;-89
2021/05/07 05:36:06;;;;;;;7.00;5.13;;;6.60;99.90;;;;;;5013864;28;20928;-89
2021/05/07 05:38:32;;;;;;;6.20;5.60;;;6.60;99.90;;;;;;5013826;28;20200;-89
2021/05/07 05:40:57;;;;;;;6.37;5.73;;;6.70;99.90;;;;;;5015206;28;20558;-86
2021/05/07 05:43:23;;;;;;;7.10;5.63;;;6.70;99.90;;;;;;5013007;28;20581;-84
2021/05/07 05:45:49;;;;;;;6.77;6.07;;;6.80;99.90;;;;;;5015732;28;20232;-89
2021/05/07 05:48:17;;;;;;;20.50;19.03;;;6.80;99.90;;;;;;5017605;28;20173;-82
2021/05/07 05:50:47;;;;;;;8.10;7.40;;;6.60;99.90;;;;;;5018260;28;20432;-90
2021/05/07 05:53:12;;;;;;;6.27;5.63;;;6.70;99.90;;;;;;5017499;28;20506;-89
2021/05/07 05:55:39;;;;;;;6.70;6.10;;;6.60;99.90;;;;;;5020836;28;20424;-88
2021/05/07 06:01:27;;;;;;;9.00;7.27;;;6.80;99.90;;;;;;5017939;28;20456;-90
2021/05/07 06:03:52;;;;;;;8.83;7.30;;;6.80;99.90;;;;;;5016418;28;20427;-87
2021/05/07 06:06:18;;;;;;;8.70;7.90;;;6.70;99.90;;;;;;5020566;28;20633;-86
2021/05/07 06:08:43;;;;;;;10.87;9.67;;;6.70;99.90;;;;;;5016519;28;20177;-84
2021/05/07 06:11:09;;;;;;;8.07;7.27;;;6.60;99.90;;;;;;5015718;28;20565;-88
2021/05/07 06:13:35;;;;;;;9.33;7.97;;;6.70;99.90;;;;;;5016733;28;20557;-88
2021/05/07 06:16:00;;;;;;;8.37;7.67;;;6.80;99.90;;;;;;5017921;28;20204;-81
2021/05/07 06:18:26;;;;;;;9.40;7.97;;;6.80;99.90;;;;;;5015510;28;20241;-85
2021/05/07 06:20:51;;;;;;;14.20;12.13;;;6.90;99.90;;;;;;5018048;28;20284;-88
2021/05/07 06:23:17;;;;;;;9.33;8.40;;;6.70;99.90;;;;;;5019024;28;20169;-86
2021/05/07 06:25:43;;;;;;;9.63;8.80;;;6.80;99.90;;;;;;5019239;28;20227;-89
2021/05/07 06:28:08;;;;;;;9.63;8.73;;;6.70;99.90;;;;;;5018322;28;20189;-88
2021/05/07 06:30:34;;;;;;;9.33;8.43;;;6.70;99.90;;;;;;5018942;28;20196;-87
2021/05/07 06:33:00;;;;;;;9.40;8.50;;;6.80;99.90;;;;;;5016638;28;20180;-88
2021/05/07 06:35:27;;;;;;;8.83;8.03;;;6.90;99.90;;;;;;5019219;28;20270;-90
2021/05/07 06:37:53;;;;;;;7.67;6.80;;;6.70;99.90;;;;;;5020780;28;20252;-84
2021/05/07 06:40:19;;;;;;;12.67;10.80;;;6.80;99.90;;;;;;5021357;28;20440;-80
2021/05/07 06:42:47;;;;;;;9.30;8.50;;;6.80;99.90;;;;;;5023153;28;20949;-89
2021/05/07 06:45:13;;;;;;;8.60;7.80;;;6.80;99.90;;;;;;5020458;28;20177;-89
2021/05/07 06:47:39;;;;;;;9.70;8.80;;;6.80;99.90;;;;;;5018738;28;20430;-88
2021/05/07 06:50:06;;;;;;;8.97;8.07;;;6.80;99.90;;;;;;5021812;28;20416;-88
2021/05/07 06:52:32;;;;;;;11.10;10.00;;;6.80;99.90;;;;;;5018036;28;20495;-89
2021/05/07 06:54:59;;;;;;;11.97;8.83;;;6.80;99.90;;;;;;5002510;28;20432;-90
2021/05/07 06:57:24;;;;;;;11.93;10.70;;;6.70;99.90;;;;;;5019459;28;20444;-89
2021/05/07 06:59:50;;;;;;;10.07;9.17;;;6.80;99.90;;;;;;5015436;28;20511;-83
2021/05/07 07:02:17;;;;;;;11.67;9.20;;;6.80;99.90;;;;;;5016314;28;20656;-89
2021/05/07 07:04:42;;;;;;;8.37;7.63;;;6.70;99.90;;;;;;5018978;28;20748;-88
2021/05/07 07:07:08;;;;;;;10.03;9.03;;;6.80;99.90;;;;;;5020149;28;20424;-91
2021/05/07 07:09:34;;;;;;;11.47;8.67;;;6.80;99.90;;;;;;5015666;28;20212;-89
2021/05/07 07:11:59;;;;;;;10.20;8.80;;;6.70;99.90;;;;;;5016747;28;20220;-88
2021/05/07 07:14:25;;;;;;;10.73;9.60;;;6.90;99.90;;;;;;5018203;28;20216;-85
2021/05/07 07:16:50;;;;;;;10.57;9.57;;;6.80;99.90;;;;;;5019524;28;20204;-87
2021/05/07 07:19:16;;;;;;;10.73;9.73;;;6.80;99.90;;;;;;5017661;28;20261;-84
2021/05/07 07:21:42;;;;;;;12.00;10.80;;;6.80;99.90;;;;;;5015364;28;20443;-90
2021/05/07 07:24:08;;;;;;;11.93;10.83;;;7.00;99.90;;;;;;5018680;28;20180;-87
2021/05/07 07:26:34;;;;;;;12.23;10.03;;;6.90;99.90;;;;;;5018983;28;20189;-89
2021/05/07 07:28:59;;;;;;;11.33;10.33;;;7.10;99.90;;;;;;5019128;28;20919;-86
2021/05/07 07:31:25;;;;;;;9.83;8.93;;;7.40;99.90;;;;;;5023680;28;20169;-83
2021/05/07 07:33:50;;;;;;;10.60;8.90;;;7.60;99.90;;;;;;5020105;28;20268;-90
2021/05/07 07:36:16;;;;;;;10.17;7.80;;;8.00;99.90;;;;;;5025037;28;20173;-85
2021/05/07 07:38:42;;;;;;;9.40;8.60;;;8.30;99.90;;;;;;5025281;28;20173;-84
2021/05/07 07:41:07;;;;;;;8.53;7.67;;;8.60;99.90;;;;;;5027493;28;20274;-89
2021/05/07 07:43:33;;;;;;;8.47;7.77;;;8.40;99.90;;;;;;5028544;28;20170;-87
2021/05/07 07:46:00;;;;;;;8.80;8.00;;;8.10;99.90;;;;;;5016264;28;20214;-90
2021/05/07 07:48:25;;;;;;;6.97;6.27;;;8.10;99.90;;;;;;5015571;28;20596;-88
2021/05/07 07:50:51;;;;;;;8.50;7.60;;;7.90;99.90;;;;;;5018587;28;20424;-89
2021/05/07 07:53:16;;;;;;;7.40;6.70;;;8.00;99.90;;;;;;5015645;28;20224;-89
2021/05/07 07:55:42;;;;;;;6.33;5.83;;;8.60;99.90;;;;;;5017823;28;20169;-82
2021/05/07 07:58:08;;;;;;;7.10;6.40;;;9.00;99.90;;;;;;5015703;28;20621;-87
2021/05/07 08:00:34;;;;;;;6.93;6.33;;;9.40;99.90;;;;;;5013439;28;20280;-90
2021/05/07 08:03:00;;;;;;;7.93;7.17;;;9.20;99.90;;;;;;5016288;28;20424;-89
2021/05/07 08:05:25;;;;;;;7.10;6.60;;;9.40;99.90;;;;;;5014772;28;20416;-89
2021/05/07 08:07:51;;;;;;;6.87;6.37;;;10.10;99.90;;;;;;5015048;28;20181;-87
2021/05/07 08:10:18;;;;;;;5.13;4.67;;;10.90;99.90;;;;;;5015696;28;20177;-87
2021/05/07 08:12:44;;;;;;;5.67;5.27;;;11.70;99.90;;;;;;5015969;28;20201;-89
2021/05/07 08:15:11;;;;;;;5.43;5.07;;;11.90;99.90;;;;;;5014024;28;20415;-88
2021/05/07 08:17:37;;;;;;;5.80;5.40;;;12.30;99.90;;;;;;5017158;28;20412;-86
2021/05/07 08:20:05;;;;;;;5.20;4.80;;;11.00;99.90;;;;;;5015528;28;20832;-90
2021/05/07 08:22:31;;;;;;;6.10;5.60;;;10.40;99.90;;;;;;5015773;28;20428;-88
2021/05/07 08:24:56;;;;;;;6.33;5.20;;;10.00;99.90;;;;;;5015552;28;20408;-88
2021/05/07 08:27:22;;;;;;;6.93;6.20;;;9.80;99.90;;;;;;5015220;28;20494;-87
2021/05/07 08:29:48;;;;;;;6.13;5.63;;;9.50;99.90;;;;;;5014826;28;20303;-90
2021/05/07 08:32:14;;;;;;;5.63;4.93;;;9.60;99.90;;;;;;5012873;28;20177;-88
2021/05/07 08:34:42;;;;;;;6.30;4.90;;;10.70;99.90;;;;;;5014116;28;20539;-85
2021/05/07 08:37:09;;;;;;;6.00;5.60;;;11.80;99.90;;;;;;5013871;28;20239;-87
2021/05/07 08:42:56;;;;;;;5.50;5.10;;;12.90;99.90;;;;;;5013711;28;20470;-81
2021/05/07 08:45:22;;;;;;;6.13;5.67;;;13.30;1.00;;;;;;5014455;28;20440;-86
2021/05/07 08:47:52;;;;;;;8.10;7.30;;;13.50;99.90;;;;;;5015981;28;20195;-89
2021/05/07 08:50:18;;;;;;;6.40;5.90;;;14.50;1.00;;;;;;5013897;28;20264;-86
2021/05/07 08:52:43;;;;;;;5.60;5.20;;;13.90;1.00;;;;;;5015307;28;20515;-85
2021/05/07 08:55:09;;;;;;;6.40;5.80;;;14.50;61.20;;;;;;5013522;28;20173;-86
2021/05/07 08:57:35;;;;;;;6.27;5.60;;;14.10;1.00;;;;;;5015125;28;20181;-88
2021/05/07 09:00:06;;;;;;;5.83;5.13;;;14.00;1.00;;;;;;5018450;28;20425;-91
2021/05/07 09:02:32;;;;;;;5.20;4.03;;;14.80;99.90;;;;;;5015024;28;20193;-88
2021/05/07 09:04:59;;;;;;;7.03;5.80;;;12.60;99.90;;;;;;5014616;28;20421;-88
2021/05/07 09:07:28;;;;;;;5.63;5.20;;;12.00;1.00;;;;;;5015272;28;20920;-87
2021/05/07 09:09:58;;;;;;;5.40;4.93;;;11.40;99.90;;;;;;5014952;28;20482;-88
2021/05/07 09:12:32;;;;;;;5.63;5.00;;;11.90;99.90;;;;;;5016753;28;20443;-89
2021/05/07 09:15:00;;;;;;;4.10;3.80;;;13.10;99.90;;;;;;5013827;28;20430;-89
2021/05/07 09:17:28;;;;;;;4.50;4.10;;;13.40;71.10;;;;;;5015488;28;20428;-85
2021/05/07 09:20:13;;;;;;;4.60;4.30;;;14.30;26.60;;;;;;5016030;28;20427;-89
2021/05/07 09:22:41;;;;;;;5.10;4.53;;;13.60;1.00;;;;;;5018152;28;20448;-88
2021/05/07 09:25:10;;;;;;;5.23;4.70;;;13.40;1.00;;;;;;5019298;28;20416;-87
2021/05/07 09:27:35;;;;;;;5.90;5.37;;;13.30;1.00;;;;;;5021913;28;20432;-89
2021/05/07 09:30:02;;;;;;;5.20;4.80;;;13.60;1.00;;;;;;5021193;28;20451;-90
2021/05/07 09:32:29;;;;;;;4.57;4.20;;;13.20;1.00;;;;;;5020654;28;20192;-81
2021/05/07 09:35:09;;;;;;;5.13;4.73;;;12.30;1.00;;;;;;5018218;28;20954;-89
2021/05/07 09:37:35;;;;;;;3.40;3.17;;;11.40;1.00;;;;;;5019908;28;20404;-86
2021/05/07 09:40:10;;;;;;;5.33;4.93;;;10.60;99.10;;;;;;5019147;28;20416;-87
2021/05/07 09:42:35;;;;;;;3.07;2.83;;;11.70;53.60;;;;;;5018152;28;20877;-90
2021/05/07 09:45:03;;;;;;;5.40;4.87;;;12.20;1.00;;;;;;5018793;28;20448;-88
2021/05/07 09:47:34;;;;;;;5.97;5.50;;;13.40;1.00;;;;;;5019079;28;20180;-79
2021/05/07 09:50:05;;;;;;;5.00;4.53;;;13.30;1.00;;;;;;5017134;28;20499;-82
2021/05/07 09:52:30;;;;;;;5.23;4.73;;;14.60;1.00;;;;;;5020359;28;20456;-88
2021/05/07 09:54:56;;;;;;;9.63;5.03;;;14.80;1.00;;;;;;5034517;28;20435;-86
2021/05/07 09:57:22;;;;;;;3.93;3.67;;;14.10;99.90;;;;;;5022190;28;20189;-83
2021/05/07 09:59:48;;;;;;;5.03;4.70;;;14.30;99.90;;;;;;5019377;28;20656;-88
2021/05/07 10:02:15;;;;;;;3.50;3.30;;;14.50;99.90;;;;;;5018898;28;20549;-87
2021/05/07 10:04:41;;;;;;;9.10;4.80;;;14.60;99.90;;;;;;5017211;28;20427;-86
2021/05/07 10:07:07;;;;;;;4.90;4.27;;;15.00;99.90;;;;;;5016821;28;20823;-89
2021/05/07 10:09:33;;;;;;;5.30;4.90;;;15.10;99.90;;;;;;5019189;28;20438;-87
2021/05/07 10:12:01;;;;;;;5.07;4.67;;;14.30;99.90;;;;;;5021504;28;20450;-90
2021/05/07 10:14:28;;;;;;;6.03;3.47;;;13.70;99.90;;;;;;5023961;28;20456;-89
2021/05/07 10:16:54;;;;;;;4.60;3.63;;;13.00;99.90;;;;;;5022869;28;20843;-89
2021/05/07 10:19:19;;;;;;;6.00;3.57;;;11.90;99.90;;;;;;5024536;28;20416;-89
2021/05/07 10:21:48;;;;;;;5.10;4.67;;;11.40;1.00;;;;;;5020124;28;20217;-90
2021/05/07 10:24:16;;;;;;;4.10;3.80;;;10.90;1.00;;;;;;5020760;28;20169;-86
2021/05/07 10:26:45;;;;;;;4.83;4.37;;;11.10;1.00;;;;;;5019470;28;20419;-86
2021/05/07 10:29:17;;;;;;;6.73;4.00;;;10.90;1.00;;;;;;5017750;28;20443;-90
2021/05/07 10:31:51;;;;;;;5.23;4.73;;;10.80;1.00;;;;;;5018034;28;20480;-90
2021/05/07 10:34:18;;;;;;;7.83;5.00;;;11.00;1.00;;;;;;5017415;28;20427;-88
2021/05/07 10:36:47;;;;;;;5.07;4.30;;;11.10;1.00;;;;;;5017568;28;20417;-88
2021/05/07 10:39:19;;;;;;;3.93;3.57;;;11.90;1.00;;;;;;5017978;28;20432;-88
2021/05/07 10:41:46;;;;;;;4.53;4.13;;;13.40;1.00;;;;;;5017226;28;20460;-88
2021/05/07 10:47:36;;;;;;;4.17;3.87;;;13.30;99.90;;;;;;5019751;28;20832;-88
2021/05/07 10:50:15;;;;;;;4.10;3.70;;;12.90;99.90;;;;;;5018131;28;20820;-87
2021/05/07 10:52:41;;;;;;;3.77;3.40;;;12.10;99.90;;;;;;5017616;28;20985;-89
2021/05/07 10:55:08;;;;;;;3.20;2.47;;;11.90;99.90;;;;;;5016768;28;20458;-86
2021/05/07 10:57:38;;;;;;;4.50;4.10;;;11.70;1.00;;;;;;5016161;28;20173;-88
2021/05/07 11:00:10;;;;;;;3.50;3.20;;;11.90;1.00;;;;;;5015759;28;20420;-88
2021/05/07 11:02:46;;;;;;;4.90;4.00;;;12.00;99.90;;;;;;5016567;28;20436;-88
2021/05/07 11:05:13;;;;;;;4.17;3.87;;;13.10;99.90;;;;;;5018164;28;20423;-89
2021/05/07 11:07:51;;;;;;;5.57;5.17;;;14.40;99.90;;;;;;5017847;28;20424;-88
2021/05/07 11:13:43;;;;;;;4.13;3.83;;;13.70;99.90;;;;;;5016926;28;20392;-85
2021/05/07 11:16:08;;;;;;;3.87;3.57;;;14.50;99.90;;;;;;5020485;28;20455;-89
2021/05/07 11:18:34;;;;;;;5.17;3.67;;;14.80;99.90;;;;;;5023001;28;20474;-87
2021/05/07 11:21:14;;;;;;;4.10;3.80;;;15.00;99.90;;;;;;5020403;28;20281;-85
2021/05/07 11:23:40;;;;;;;11.17;3.20;;;14.10;99.90;;;;;;5019737;28;20264;-82
2021/05/07 11:26:07;;;;;;;4.30;3.20;;;14.00;99.90;;;;;;5019164;28;20408;-88
2021/05/07 11:28:43;;;;;;;4.77;4.37;;;13.50;99.90;;;;;;5015789;28;20428;-89
2021/05/07 11:31:09;;;;;;;2.60;2.13;;;12.90;99.90;;;;;;5017354;28;20427;-82
2021/05/07 11:33:35;;;;;;;5.13;2.97;;;13.00;99.90;;;;;;5017920;28;20420;-89
2021/05/07 11:36:06;;;;;;;13.63;4.00;;;13.10;99.90;;;;;;5016060;28;20420;-85
2021/05/07 11:38:33;;;;;;;4.40;4.10;;;13.30;99.90;;;;;;5015515;28;20178;-90
2021/05/07 11:40:59;;;;;;;4.80;3.97;;;13.30;99.90;;;;;;5015802;28;20472;-74
2021/05/07 11:47:06;;;;;;;9.17;3.67;;;13.70;99.90;;;;;;5018515;28;20172;-89
2021/05/07 11:49:38;;;;;;;4.80;2.70;;;13.50;99.90;;;;;;5017248;28;20416;-90
2021/05/07 11:55:30;;;;;;;3.00;2.50;;;13.40;99.90;;;;;;5018553;28;20566;-89
2021/05/07 11:58:03;;;;;;;2.80;2.60;;;12.70;99.90;;;;;;5015179;28;20958;-87
2021/05/07 12:00:30;;;;;;;3.77;3.50;;;12.30;99.90;;;;;;5016198;28;20452;-83
2021/05/07 12:03:05;;;;;;;3.50;3.20;;;12.20;99.90;;;;;;5017571;28;20432;-87
2021/05/07 12:08:54;;;;;;;3.40;2.03;;;12.90;99.90;;;;;;5025252;28;20395;-88
2021/05/07 12:11:20;;;;;;;2.37;2.20;;;12.30;99.90;;;;;;5018831;28;20424;-89
2021/05/07 12:13:47;;;;;;;3.00;1.87;;;12.20;99.90;;;;;;5021937;28;20400;-89
2021/05/07 12:16:15;;;;;;;5.33;2.60;;;12.00;99.90;;;;;;5015236;28;20177;-87
2021/05/07 12:18:50;;;;;;;3.20;3.00;;;11.80;99.90;;;;;;5015520;28;20519;-88
2021/05/07 12:21:16;;;;;;;2.83;2.13;;;11.50;99.90;;;;;;5017712;28;20517;-89
2021/05/07 12:23:46;;;;;;;4.27;3.87;;;11.30;99.90;;;;;;5015822;28;20412;-85
2021/05/07 12:26:13;;;;;;;3.40;3.10;;;11.00;99.90;;;;;;5015072;28;20185;-85
2021/05/07 12:28:39;;;;;;;3.80;3.50;;;10.90;99.90;;;;;;5016840;28;20462;-89
2021/05/07 12:31:07;;;;;;;7.97;3.00;;;11.10;99.90;;;;;;5013877;28;20416;-89
2021/05/07 12:33:35;;;;;;;6.83;3.33;;;11.50;99.90;;;;;;5016298;28;20503;-84
2021/05/07 12:36:03;;;;;;;3.20;3.00;;;11.80;99.90;;;;;;5013897;28;20424;-87
2021/05/07 12:38:29;;;;;;;7.27;3.43;;;12.30;99.90;;;;;;5016114;28;20534;-88
2021/05/07 12:41:11;;;;;;;4.97;3.63;;;12.40;99.90;;;;;;5013673;28;20468;-87
2021/05/07 12:43:39;;;;;;;3.30;3.10;;;12.20;99.90;;;;;;5015016;28;20819;-84
2021/05/07 12:46:06;;;;;;;6.40;4.07;;;12.10;99.90;;;;;;5018989;28;20428;-91
2021/05/07 12:48:32;;;;;;;3.63;3.10;;;11.90;99.90;;;;;;5017980;28;20495;-86
2021/05/07 12:51:03;;;;;;;6.00;3.43;;;11.50;99.90;;;;;;5013891;28;20471;-89
2021/05/07 12:53:29;;;;;;;8.30;4.50;;;11.60;99.90;;;;;;5017576;28;20448;-91
2021/05/07 12:55:55;;;;;;;4.40;2.87;;;12.20;99.90;;;;;;5021338;28;20546;-88
2021/05/07 12:58:21;;;;;;;5.53;2.97;;;12.60;99.90;;;;;;5023311;28;20440;-91
2021/05/07 13:00:47;;;;;;;3.47;3.20;;;12.60;99.90;;;;;;5020043;28;20193;-86
2021/05/07 13:03:13;;;;;;;2.80;2.60;;;12.70;99.90;;;;;;5022217;28;20215;-86
2021/05/07 13:05:40;;;;;;;2.73;2.50;;;12.60;99.90;;;;;;5028297;28;20415;-89
2021/05/07 13:08:06;;;;;;;9.47;6.40;;;12.20;99.90;;;;;;5027626;28;20989;-87
2021/05/07 13:10:33;;;;;;;2.70;2.50;;;12.20;99.90;;;;;;5037632;28;20420;-88
2021/05/07 13:13:00;;;;;;;2.70;2.50;;;11.80;99.90;;;;;;5036159;28;20472;-90
2021/05/07 13:15:27;;;;;;;3.67;3.37;;;11.60;99.90;;;;;;5022197;28;20518;-90
2021/05/07 13:17:53;;;;;;;3.90;2.90;;;11.30;1.00;;;;;;5019653;28;20423;-86